KNE803 OEMA-OJAI
Flight info
| Callsign | KNE803 |
|---|---|
| Flight time | N/A |
| Altitude | 38000 |
| Route | PMA Z712 WEJ M449 MUNRA |
| Aircraft | A20N/M-SDE2E3FGHIRWXY/LB1 |
Departure
| Time | 2026-04-30 22:00 |
|---|---|
| Airport | Prince Mohammad Bin Abdulaziz Airport (OEMA) |
Arrival
| Time | N/A |
|---|---|
| Airport | Queen Alia International Airport (OJAI) |
| Time | Latitude | Longitude | Altitude | Speed | Heading |
|---|---|---|---|---|---|
| 2026-04-30 21:42 | 24.55678 | 39.71258 | 2106 ft | 0 kts | 79° |
| 2026-04-30 21:49 | 24.55677 | 39.71254 | 2106 ft | 3 kts | 79° |
| 2026-04-30 21:49 | 24.55674 | 39.71234 | 2105 ft | 3 kts | 79° |
| 2026-04-30 21:49 | 24.55670 | 39.71214 | 2107 ft | 3 kts | 79° |
| 2026-04-30 21:49 | 24.55667 | 39.71193 | 2106 ft | 3 kts | 79° |
| 2026-04-30 21:50 | 24.55663 | 39.71173 | 2105 ft | 3 kts | 79° |
| 2026-04-30 21:50 | 24.55654 | 39.71158 | 2108 ft | 3 kts | 10° |
| 2026-04-30 21:50 | 24.55639 | 39.71161 | 2105 ft | 0 kts | 301° |
| 2026-04-30 21:51 | 24.55640 | 39.71160 | 2105 ft | 2 kts | 305° |
| 2026-04-30 21:51 | 24.55667 | 39.71141 | 2106 ft | 7 kts | 344° |
| 2026-04-30 21:51 | 24.55727 | 39.71130 | 2106 ft | 11 kts | 348° |
| 2026-04-30 21:52 | 24.55805 | 39.71114 | 2108 ft | 12 kts | 350° |
| 2026-04-30 21:52 | 24.55894 | 39.71097 | 2111 ft | 14 kts | 350° |
| 2026-04-30 21:52 | 24.55979 | 39.71076 | 2111 ft | 11 kts | 337° |
| 2026-04-30 21:52 | 24.56015 | 39.71018 | 2112 ft | 9 kts | 276° |
| 2026-04-30 21:53 | 24.56006 | 39.70951 | 2111 ft | 9 kts | 256° |
| 2026-04-30 21:53 | 24.56008 | 39.70887 | 2110 ft | 8 kts | 303° |
| 2026-04-30 21:53 | 24.56047 | 39.70861 | 2111 ft | 5 kts | 343° |
| 2026-04-30 21:53 | 24.56086 | 39.70852 | 2112 ft | 7 kts | 349° |
| 2026-04-30 21:54 | 24.56150 | 39.70840 | 2113 ft | 12 kts | 350° |
| 2026-04-30 21:54 | 24.56253 | 39.70820 | 2116 ft | 18 kts | 350° |
| 2026-04-30 21:54 | 24.56391 | 39.70796 | 2119 ft | 23 kts | 349° |
| 2026-04-30 21:54 | 24.56558 | 39.70758 | 2120 ft | 25 kts | 348° |
| 2026-04-30 21:55 | 24.56721 | 39.70721 | 2122 ft | 23 kts | 348° |
| 2026-04-30 21:55 | 24.56871 | 39.70686 | 2125 ft | 21 kts | 348° |
| 2026-04-30 21:55 | 24.57009 | 39.70655 | 2126 ft | 19 kts | 348° |
| 2026-04-30 21:55 | 24.57131 | 39.70629 | 2127 ft | 17 kts | 350° |
| 2026-04-30 21:56 | 24.57239 | 39.70607 | 2128 ft | 15 kts | 349° |
| 2026-04-30 21:56 | 24.57326 | 39.70589 | 2130 ft | 10 kts | 349° |
| 2026-04-30 21:56 | 24.57387 | 39.70576 | 2131 ft | 8 kts | 349° |
| 2026-04-30 21:56 | 24.57460 | 39.70562 | 2133 ft | 12 kts | 350° |
| 2026-04-30 21:57 | 24.57532 | 39.70548 | 2134 ft | 9 kts | 350° |
| 2026-04-30 21:57 | 24.57586 | 39.70538 | 2135 ft | 7 kts | 350° |
| 2026-04-30 21:57 | 24.57623 | 39.70526 | 2136 ft | 5 kts | 336° |
| 2026-04-30 21:57 | 24.57651 | 39.70487 | 2136 ft | 9 kts | 281° |
| 2026-04-30 21:58 | 24.57641 | 39.70400 | 2135 ft | 13 kts | 256° |
| 2026-04-30 21:58 | 24.57564 | 39.70349 | 2135 ft | 17 kts | 174° |
| 2026-04-30 21:58 | 24.57533 | 39.70355 | 2133 ft | 2 kts | 168° |
| 2026-04-30 21:58 | 24.57374 | 39.70389 | 2131 ft | 52 kts | 169° |
| 2026-04-30 21:59 | 24.56827 | 39.70504 | 2121 ft | 107 kts | 168° |
| 2026-04-30 21:59 | 24.55936 | 39.70694 | 2107 ft | 153 kts | 169° |
| 2026-04-30 21:59 | 24.54847 | 39.70915 | 2461 ft | 150 kts | 172° |
| 2026-04-30 22:00 | 24.52525 | 39.71398 | 2791 ft | 177 kts | 169° |
| 2026-04-30 22:00 | 24.50084 | 39.71921 | 3356 ft | 183 kts | 172° |
| 2026-04-30 22:00 | 24.48824 | 39.72189 | 3669 ft | 185 kts | 171° |
| 2026-04-30 22:01 | 24.47508 | 39.72467 | 3886 ft | 201 kts | 172° |
| 2026-04-30 22:01 | 24.46073 | 39.72769 | 4064 ft | 218 kts | 171° |
| 2026-04-30 22:01 | 24.44513 | 39.73097 | 4153 ft | 241 kts | 171° |
| 2026-04-30 22:01 | 24.42831 | 39.73451 | 4286 ft | 260 kts | 171° |
| 2026-04-30 22:02 | 24.40996 | 39.73839 | 4491 ft | 273 kts | 171° |
| 2026-04-30 22:02 | 24.39097 | 39.74236 | 4801 ft | 281 kts | 172° |
| 2026-04-30 22:02 | 24.37153 | 39.74328 | 5166 ft | 280 kts | 189° |
| 2026-04-30 22:02 | 24.35330 | 39.73641 | 5595 ft | 277 kts | 213° |
| 2026-04-30 22:03 | 24.33946 | 39.72207 | 6014 ft | 276 kts | 237° |
| 2026-04-30 22:03 | 24.33210 | 39.70280 | 6417 ft | 276 kts | 258° |
| 2026-04-30 22:03 | 24.32985 | 39.68910 | 6663 ft | 277 kts | 262° |
| 2026-04-30 22:03 | 24.32661 | 39.66085 | 7150 ft | 280 kts | 262° |
| 2026-04-30 22:04 | 24.32429 | 39.63955 | 7512 ft | 283 kts | 262° |
| 2026-04-30 22:04 | 24.32185 | 39.61807 | 7879 ft | 285 kts | 262° |
| 2026-04-30 22:04 | 24.31674 | 39.57459 | 8595 ft | 290 kts | 261° |
| 2026-04-30 22:05 | 24.31412 | 39.55269 | 8984 ft | 290 kts | 261° |
| 2026-04-30 22:05 | 24.31147 | 39.53071 | 9361 ft | 292 kts | 260° |
| 2026-04-30 22:05 | 24.30884 | 39.50894 | 9719 ft | 293 kts | 260° |
| 2026-04-30 22:05 | 24.30611 | 39.48644 | 10056 ft | 295 kts | 260° |
| 2026-04-30 22:06 | 24.30372 | 39.46415 | 10209 ft | 304 kts | 264° |
| 2026-04-30 22:06 | 24.31122 | 39.41753 | 10405 ft | 324 kts | 294° |
| 2026-04-30 22:06 | 24.32398 | 39.39687 | 10520 ft | 332 kts | 311° |
| 2026-04-30 22:07 | 24.34199 | 39.38095 | 10750 ft | 335 kts | 328° |
| 2026-04-30 22:07 | 24.36358 | 39.37136 | 10984 ft | 337 kts | 345° |
| 2026-04-30 22:07 | 24.38671 | 39.36683 | 11214 ft | 338 kts | 351° |
| 2026-04-30 22:07 | 24.41009 | 39.36354 | 11411 ft | 340 kts | 351° |
| 2026-04-30 22:08 | 24.43363 | 39.36034 | 11603 ft | 341 kts | 351° |
| 2026-04-30 22:08 | 24.45684 | 39.35713 | 11831 ft | 342 kts | 351° |
| 2026-04-30 22:08 | 24.48089 | 39.35371 | 12005 ft | 356 kts | 351° |
| 2026-04-30 22:08 | 24.50585 | 39.35011 | 12238 ft | 371 kts | 350° |
| 2026-04-30 22:09 | 24.53194 | 39.34633 | 12595 ft | 380 kts | 350° |
| 2026-04-30 22:09 | 24.54936 | 39.34380 | 12901 ft | 384 kts | 350° |
| 2026-04-30 22:09 | 24.58505 | 39.33861 | 13637 ft | 388 kts | 350° |
| 2026-04-30 22:09 | 24.61177 | 39.33472 | 14167 ft | 390 kts | 349° |
| 2026-04-30 22:10 | 24.63886 | 39.33076 | 14672 ft | 392 kts | 349° |
| 2026-04-30 22:10 | 24.65679 | 39.32814 | 15029 ft | 394 kts | 349° |
| 2026-04-30 22:10 | 24.68399 | 39.32417 | 15558 ft | 396 kts | 349° |
| 2026-04-30 22:10 | 24.71148 | 39.32015 | 16068 ft | 399 kts | 348° |
| 2026-04-30 22:11 | 24.76708 | 39.31200 | 17179 ft | 404 kts | 348° |
| 2026-04-30 22:11 | 24.79485 | 39.30794 | 17690 ft | 406 kts | 348° |
| 2026-04-30 22:11 | 24.82291 | 39.30383 | 18172 ft | 409 kts | 348° |
| 2026-04-30 22:12 | 24.85069 | 39.29754 | 18626 ft | 406 kts | 339° |
| 2026-04-30 22:12 | 24.87642 | 39.28581 | 19063 ft | 402 kts | 329° |
| 2026-04-30 22:12 | 24.90113 | 39.27082 | 19520 ft | 401 kts | 325° |
| 2026-04-30 22:12 | 24.92452 | 39.25469 | 19987 ft | 401 kts | 323° |
| 2026-04-30 22:13 | 24.94779 | 39.23752 | 20447 ft | 403 kts | 322° |
| 2026-04-30 22:13 | 24.97092 | 39.21999 | 20927 ft | 404 kts | 321° |
| 2026-04-30 22:13 | 24.99405 | 39.20236 | 21431 ft | 405 kts | 321° |
| 2026-04-30 22:13 | 25.01730 | 39.18472 | 21941 ft | 407 kts | 322° |
| 2026-04-30 22:14 | 25.04072 | 39.16707 | 22454 ft | 409 kts | 322° |
| 2026-04-30 22:14 | 25.06433 | 39.14939 | 22962 ft | 411 kts | 322° |
| 2026-04-30 22:14 | 25.08805 | 39.13170 | 23463 ft | 413 kts | 322° |
| 2026-04-30 22:14 | 25.11185 | 39.11398 | 23884 ft | 414 kts | 322° |
| 2026-04-30 22:15 | 25.13574 | 39.09623 | 24346 ft | 414 kts | 322° |
| 2026-04-30 22:15 | 25.15966 | 39.07847 | 24763 ft | 415 kts | 322° |
| 2026-04-30 22:16 | 25.26198 | 39.00235 | 26334 ft | 422 kts | 321° |
| 2026-04-30 22:17 | 25.33513 | 38.94769 | 27487 ft | 425 kts | 321° |
| 2026-04-30 22:17 | 25.35991 | 38.92917 | 27848 ft | 426 kts | 321° |
| 2026-04-30 22:17 | 25.40874 | 38.89264 | 28863 ft | 421 kts | 321° |
| 2026-04-30 22:18 | 25.43282 | 38.87467 | 29603 ft | 413 kts | 321° |
| 2026-04-30 22:18 | 25.47987 | 38.83953 | 30547 ft | 408 kts | 320° |
| 2026-04-30 22:19 | 25.52714 | 38.80403 | 31022 ft | 413 kts | 320° |
| 2026-04-30 22:19 | 25.55092 | 38.78619 | 31301 ft | 413 kts | 319° |
| 2026-04-30 22:19 | 25.59867 | 38.75038 | 31873 ft | 415 kts | 319° |
| 2026-04-30 22:20 | 25.62261 | 38.73242 | 32194 ft | 415 kts | 319° |
| 2026-04-30 22:20 | 25.67038 | 38.69654 | 32789 ft | 417 kts | 318° |
| 2026-04-30 22:20 | 25.68628 | 38.68457 | 32984 ft | 417 kts | 318° |
| 2026-04-30 22:21 | 25.71035 | 38.66642 | 33266 ft | 418 kts | 317° |
| 2026-04-30 22:21 | 25.73443 | 38.64828 | 33551 ft | 418 kts | 318° |
| 2026-04-30 22:21 | 25.75843 | 38.63020 | 33931 ft | 416 kts | 317° |
| 2026-04-30 22:21 | 25.78235 | 38.61218 | 34182 ft | 416 kts | 317° |
| 2026-04-30 22:22 | 25.80629 | 38.59414 | 34468 ft | 416 kts | 317° |
| 2026-04-30 22:22 | 25.83022 | 38.57612 | 34710 ft | 415 kts | 317° |
| 2026-04-30 22:22 | 25.85404 | 38.55814 | 34931 ft | 415 kts | 317° |
| 2026-04-30 22:22 | 25.87792 | 38.54009 | 35162 ft | 415 kts | 316° |
| 2026-04-30 22:23 | 25.90176 | 38.52208 | 35386 ft | 414 kts | 316° |
| 2026-04-30 22:23 | 25.92562 | 38.50406 | 35592 ft | 414 kts | 316° |
| 2026-04-30 22:23 | 25.94944 | 38.48603 | 35801 ft | 415 kts | 316° |
| 2026-04-30 22:23 | 25.97326 | 38.46797 | 35981 ft | 415 kts | 316° |
| 2026-04-30 22:24 | 25.99711 | 38.44991 | 36173 ft | 414 kts | 316° |
| 2026-04-30 22:24 | 26.02087 | 38.43193 | 36345 ft | 414 kts | 315° |
| 2026-04-30 22:24 | 26.04478 | 38.41381 | 36481 ft | 416 kts | 315° |
| 2026-04-30 22:24 | 26.06871 | 38.39566 | 36656 ft | 416 kts | 315° |
| 2026-04-30 22:25 | 26.09263 | 38.37753 | 36833 ft | 416 kts | 315° |
| 2026-04-30 22:25 | 26.11654 | 38.35940 | 37005 ft | 416 kts | 315° |
| 2026-04-30 22:25 | 26.14041 | 38.34128 | 37173 ft | 416 kts | 315° |
| 2026-04-30 22:25 | 26.16431 | 38.32313 | 37351 ft | 416 kts | 315° |
| 2026-04-30 22:26 | 26.21213 | 38.28677 | 37676 ft | 417 kts | 315° |
| 2026-04-30 22:26 | 26.23610 | 38.26852 | 37807 ft | 417 kts | 314° |
| 2026-04-30 22:26 | 26.26005 | 38.25029 | 37947 ft | 418 kts | 314° |
| 2026-04-30 22:27 | 26.28402 | 38.23202 | 37953 ft | 418 kts | 314° |
| 2026-04-30 22:27 | 26.35586 | 38.17730 | 37960 ft | 417 kts | 314° |
| 2026-04-30 22:28 | 26.42723 | 38.12278 | 37962 ft | 416 kts | 314° |
| 2026-04-30 22:29 | 26.52269 | 38.04978 | 37971 ft | 416 kts | 314° |
| 2026-04-30 22:31 | 26.69007 | 37.92162 | 37958 ft | 415 kts | 314° |
| 2026-04-30 22:32 | 26.80897 | 37.82994 | 37964 ft | 415 kts | 314° |
| 2026-04-30 22:33 | 26.92761 | 37.73837 | 37978 ft | 414 kts | 314° |
| 2026-04-30 22:35 | 27.04590 | 37.64696 | 37984 ft | 412 kts | 314° |
| 2026-04-30 22:36 | 27.16390 | 37.55546 | 37983 ft | 412 kts | 314° |
| 2026-04-30 22:37 | 27.25814 | 37.48212 | 37983 ft | 411 kts | 314° |
| 2026-04-30 22:38 | 27.35219 | 37.40892 | 37989 ft | 411 kts | 314° |
| 2026-04-30 22:39 | 27.42260 | 37.35398 | 37988 ft | 411 kts | 314° |
| 2026-04-30 22:40 | 27.56346 | 37.24388 | 37990 ft | 411 kts | 314° |
| 2026-04-30 22:41 | 27.68078 | 37.15180 | 37984 ft | 411 kts | 314° |
| 2026-04-30 22:43 | 27.82154 | 37.04103 | 37982 ft | 411 kts | 314° |
| 2026-04-30 22:44 | 27.91501 | 36.96730 | 37975 ft | 411 kts | 314° |
| 2026-04-30 22:45 | 28.05581 | 36.85591 | 37971 ft | 412 kts | 314° |
| 2026-04-30 22:47 | 28.19789 | 36.74312 | 37989 ft | 419 kts | 316° |
| 2026-04-30 22:48 | 28.29352 | 36.66707 | 37965 ft | 420 kts | 316° |
| 2026-04-30 22:49 | 28.36907 | 36.61513 | 37965 ft | 436 kts | 330° |
| 2026-04-30 22:49 | 28.46001 | 36.59205 | 37965 ft | 452 kts | 342° |
| 2026-04-30 22:51 | 28.64710 | 36.55994 | 37988 ft | 453 kts | 342° |
| 2026-04-30 22:52 | 28.74046 | 36.54319 | 37957 ft | 452 kts | 342° |
| 2026-04-30 22:53 | 28.86469 | 36.52080 | 37954 ft | 452 kts | 342° |
| 2026-04-30 22:53 | 28.95785 | 36.50401 | 37964 ft | 451 kts | 342° |
| 2026-04-30 22:55 | 29.11225 | 36.47614 | 37957 ft | 448 kts | 342° |
| 2026-04-30 22:56 | 29.23521 | 36.45391 | 37959 ft | 446 kts | 343° |
| 2026-04-30 22:57 | 29.38818 | 36.42618 | 37963 ft | 447 kts | 343° |
| 2026-04-30 22:58 | 29.51077 | 36.40399 | 37968 ft | 447 kts | 343° |
| 2026-04-30 22:59 | 29.69535 | 36.37061 | 37974 ft | 447 kts | 343° |